Gary, South Dakota
Current Conditions -  °F | °C
As of 1:14 PM on Saturday 20 Dec 2014 (Local Time) from KCNB Reporting Station
Haze Haze  
Wind Chill: 26°   Ceiling: 1000
Heat Index: 33°   Visibility: 5mi
Dew Point: 30°   Wind: 8mph
Humidity: 90%   Direction: 200°SSW
Pressure: 30.03"   Gusts: NA
Location:  44.79°N, 96.46°W
Report Text: KCNB 201914Z AUTO 20007KT 5SM BR OVC010 01/M01 A3003 RMK AO2 T00061009
Loading
Personal Weather Stations






























Interactive Weather Map New forecast layout! Learn more

10-Day Weather Forecast

Advertisements
Track Severe Weather on mobile